AAL2623 KPHX-MMSD
Flight info
| Callsign | AAL2623 |
|---|---|
| Flight time | N/A |
| Altitude | 35000 |
| Route | STRRM1 TUS J92 DASVU DCT ENEKO ENEKO1A |
| Aircraft | B738/M-SDE2E3FGHIRWXY/LB1 |
Departure
| Time | 2026-04-30 21:22 |
|---|---|
| Airport | Phoenix Sky Harbor International Airport (KPHX) |
Arrival
| Time | N/A |
|---|---|
| Airport | Los Cabos International Airport (MMSD) |
| Time | Latitude | Longitude | Altitude | Speed | Heading |
|---|---|---|---|---|---|
| 2026-04-30 20:50 | 33.43690 | -112.00243 | 1144 ft | 0 kts | 91° |
| 2026-04-30 21:07 | 33.43690 | -112.00245 | 1144 ft | 1 kts | 91° |
| 2026-04-30 21:08 | 33.43692 | -112.00262 | 1144 ft | 2 kts | 111° |
| 2026-04-30 21:08 | 33.43699 | -112.00279 | 1144 ft | 2 kts | 127° |
| 2026-04-30 21:08 | 33.43710 | -112.00291 | 1144 ft | 2 kts | 144° |
| 2026-04-30 21:08 | 33.43722 | -112.00300 | 1144 ft | 2 kts | 161° |
| 2026-04-30 21:09 | 33.43736 | -112.00304 | 1144 ft | 0 kts | 177° |
| 2026-04-30 21:09 | 33.43742 | -112.00303 | 1144 ft | 1 kts | 181° |
| 2026-04-30 21:09 | 33.43744 | -112.00303 | 1144 ft | 0 kts | 180° |
| 2026-04-30 21:14 | 33.43743 | -112.00303 | 1144 ft | 0 kts | 180° |
| 2026-04-30 21:14 | 33.43738 | -112.00303 | 1144 ft | 1 kts | 180° |
| 2026-04-30 21:14 | 33.43727 | -112.00304 | 1144 ft | 1 kts | 180° |
| 2026-04-30 21:14 | 33.43725 | -112.00304 | 1144 ft | 0 kts | 180° |
| 2026-04-30 21:15 | 33.43724 | -112.00304 | 1144 ft | 0 kts | 180° |
| 2026-04-30 21:16 | 33.43717 | -112.00304 | 1144 ft | 1 kts | 194° |
| 2026-04-30 21:16 | 33.43709 | -112.00312 | 1144 ft | 1 kts | 233° |
| 2026-04-30 21:16 | 33.43707 | -112.00326 | 1144 ft | 2 kts | 269° |
| 2026-04-30 21:16 | 33.43706 | -112.00349 | 1144 ft | 3 kts | 268° |
| 2026-04-30 21:17 | 33.43691 | -112.00377 | 1144 ft | 5 kts | 210° |
| 2026-04-30 21:17 | 33.43642 | -112.00383 | 1144 ft | 8 kts | 179° |
| 2026-04-30 21:17 | 33.43574 | -112.00383 | 1144 ft | 9 kts | 180° |
| 2026-04-30 21:17 | 33.43512 | -112.00383 | 1144 ft | 8 kts | 180° |
| 2026-04-30 21:18 | 33.43451 | -112.00383 | 1144 ft | 8 kts | 180° |
| 2026-04-30 21:18 | 33.43386 | -112.00382 | 1144 ft | 9 kts | 180° |
| 2026-04-30 21:18 | 33.43325 | -112.00383 | 1145 ft | 8 kts | 180° |
| 2026-04-30 21:18 | 33.43273 | -112.00383 | 1144 ft | 7 kts | 180° |
| 2026-04-30 21:19 | 33.43222 | -112.00368 | 1144 ft | 8 kts | 128° |
| 2026-04-30 21:19 | 33.43213 | -112.00284 | 1145 ft | 15 kts | 90° |
| 2026-04-30 21:19 | 33.43213 | -112.00124 | 1144 ft | 20 kts | 90° |
| 2026-04-30 21:19 | 33.43212 | -111.99962 | 1144 ft | 18 kts | 90° |
| 2026-04-30 21:20 | 33.43212 | -111.99812 | 1144 ft | 17 kts | 90° |
| 2026-04-30 21:20 | 33.43212 | -111.99669 | 1144 ft | 18 kts | 90° |
| 2026-04-30 21:20 | 33.43212 | -111.99526 | 1144 ft | 16 kts | 90° |
| 2026-04-30 21:20 | 33.43212 | -111.99394 | 1144 ft | 13 kts | 90° |
| 2026-04-30 21:21 | 33.43188 | -111.99344 | 1144 ft | 6 kts | 172° |
| 2026-04-30 21:21 | 33.43143 | -111.99344 | 1144 ft | 6 kts | 180° |
| 2026-04-30 21:21 | 33.43104 | -111.99431 | 1144 ft | 15 kts | 270° |
| 2026-04-30 21:22 | 33.43104 | -111.99817 | 1144 ft | 84 kts | 270° |
| 2026-04-30 21:22 | 33.43083 | -112.03819 | 2231 ft | 193 kts | 265° |
| 2026-04-30 21:23 | 33.42993 | -112.05458 | 3003 ft | 200 kts | 265° |
| 2026-04-30 21:23 | 33.42900 | -112.07156 | 3561 ft | 214 kts | 262° |
| 2026-04-30 21:23 | 33.41927 | -112.10694 | 4741 ft | 240 kts | 246° |
| 2026-04-30 21:24 | 33.41277 | -112.12585 | 5343 ft | 253 kts | 248° |
| 2026-04-30 21:24 | 33.40590 | -112.14496 | 6245 ft | 252 kts | 241° |
| 2026-04-30 21:24 | 33.39507 | -112.16154 | 7007 ft | 257 kts | 219° |
| 2026-04-30 21:24 | 33.37947 | -112.17176 | 7699 ft | 266 kts | 199° |
| 2026-04-30 21:25 | 33.34070 | -112.17444 | 8949 ft | 294 kts | 167° |
| 2026-04-30 21:25 | 33.32129 | -112.16759 | 9874 ft | 294 kts | 162° |
| 2026-04-30 21:25 | 33.30179 | -112.15977 | 10598 ft | 303 kts | 162° |
| 2026-04-30 21:26 | 33.26186 | -112.13717 | 11669 ft | 333 kts | 152° |
| 2026-04-30 21:26 | 33.24106 | -112.12351 | 12132 ft | 349 kts | 152° |
| 2026-04-30 21:27 | 33.19661 | -112.09438 | 13038 ft | 379 kts | 152° |
| 2026-04-30 21:27 | 33.17287 | -112.07900 | 13496 ft | 394 kts | 152° |
| 2026-04-30 21:27 | 33.14863 | -112.06335 | 14302 ft | 397 kts | 152° |
| 2026-04-30 21:28 | 33.09978 | -112.03195 | 15882 ft | 404 kts | 153° |
| 2026-04-30 21:28 | 33.07484 | -112.01595 | 16612 ft | 408 kts | 153° |
| 2026-04-30 21:28 | 33.02428 | -111.98349 | 18059 ft | 415 kts | 153° |
| 2026-04-30 21:29 | 32.99860 | -111.96703 | 18741 ft | 420 kts | 154° |
| 2026-04-30 21:29 | 32.91783 | -111.92329 | 20718 ft | 429 kts | 158° |
| 2026-04-30 21:30 | 32.86623 | -111.88633 | 21926 ft | 441 kts | 142° |
| 2026-04-30 21:31 | 32.80102 | -111.80754 | 23692 ft | 453 kts | 136° |
| 2026-04-30 21:31 | 32.75764 | -111.75223 | 24782 ft | 460 kts | 138° |
| 2026-04-30 21:32 | 32.71392 | -111.69654 | 25886 ft | 463 kts | 139° |
| 2026-04-30 21:32 | 32.69182 | -111.66843 | 26281 ft | 468 kts | 140° |
| 2026-04-30 21:32 | 32.66950 | -111.64004 | 26825 ft | 469 kts | 140° |
| 2026-04-30 21:32 | 32.64710 | -111.61153 | 27214 ft | 474 kts | 141° |
| 2026-04-30 21:33 | 32.62459 | -111.58288 | 27915 ft | 470 kts | 142° |
| 2026-04-30 21:33 | 32.58091 | -111.52709 | 29325 ft | 461 kts | 143° |
| 2026-04-30 21:33 | 32.55903 | -111.49921 | 29932 ft | 459 kts | 144° |
| 2026-04-30 21:34 | 32.53727 | -111.47166 | 30262 ft | 462 kts | 144° |
| 2026-04-30 21:34 | 32.49387 | -111.41663 | 31420 ft | 458 kts | 144° |
| 2026-04-30 21:34 | 32.47174 | -111.38868 | 31778 ft | 460 kts | 144° |
| 2026-04-30 21:35 | 32.45006 | -111.36127 | 32306 ft | 458 kts | 144° |
| 2026-04-30 21:35 | 32.42844 | -111.33390 | 32877 ft | 454 kts | 145° |
| 2026-04-30 21:35 | 32.40711 | -111.30688 | 33443 ft | 450 kts | 145° |
| 2026-04-30 21:35 | 32.38560 | -111.27966 | 33958 ft | 448 kts | 145° |
| 2026-04-30 21:36 | 32.36393 | -111.25241 | 34182 ft | 452 kts | 145° |
| 2026-04-30 21:36 | 32.34230 | -111.22523 | 34696 ft | 450 kts | 145° |
| 2026-04-30 21:37 | 32.27717 | -111.14342 | 34891 ft | 447 kts | 145° |
| 2026-04-30 21:37 | 32.25586 | -111.11654 | 34886 ft | 447 kts | 145° |
| 2026-04-30 21:37 | 32.21310 | -111.06292 | 34893 ft | 450 kts | 145° |
| 2026-04-30 21:38 | 32.17012 | -111.00911 | 34897 ft | 451 kts | 145° |
| 2026-04-30 21:38 | 32.12495 | -110.95857 | 34894 ft | 433 kts | 156° |
| 2026-04-30 21:39 | 32.09924 | -110.94082 | 34904 ft | 417 kts | 166° |
| 2026-04-30 21:39 | 32.07239 | -110.92953 | 34912 ft | 405 kts | 175° |
| 2026-04-30 21:39 | 32.01751 | -110.91869 | 34917 ft | 389 kts | 184° |
| 2026-04-30 21:40 | 31.96380 | -110.91876 | 34922 ft | 382 kts | 190° |
| 2026-04-30 21:40 | 31.91020 | -110.92180 | 34942 ft | 382 kts | 191° |
| 2026-04-30 21:41 | 31.85632 | -110.92488 | 34948 ft | 384 kts | 190° |
| 2026-04-30 21:41 | 31.80279 | -110.92866 | 34943 ft | 382 kts | 191° |
| 2026-04-30 21:42 | 31.74920 | -110.93103 | 34944 ft | 380 kts | 189° |
| 2026-04-30 21:42 | 31.69593 | -110.93312 | 34962 ft | 385 kts | 189° |
| 2026-04-30 21:43 | 31.64201 | -110.93542 | 34965 ft | 383 kts | 191° |
| 2026-04-30 21:43 | 31.58891 | -110.93781 | 34961 ft | 382 kts | 191° |
| 2026-04-30 21:44 | 31.53535 | -110.94033 | 34971 ft | 382 kts | 190° |
| 2026-04-30 21:44 | 31.48102 | -110.94296 | 34986 ft | 385 kts | 191° |
| 2026-04-30 21:45 | 31.42762 | -110.94546 | 34984 ft | 383 kts | 191° |
| 2026-04-30 21:45 | 31.38294 | -110.94756 | 34999 ft | 383 kts | 190° |
| 2026-04-30 21:46 | 31.32697 | -110.95023 | 34995 ft | 381 kts | 190° |
| 2026-04-30 21:46 | 31.27346 | -110.95281 | 34994 ft | 384 kts | 190° |
| 2026-04-30 21:47 | 31.21986 | -110.95528 | 34996 ft | 384 kts | 191° |
| 2026-04-30 21:47 | 31.17168 | -110.95744 | 35000 ft | 383 kts | 191° |
| 2026-04-30 21:48 | 31.11807 | -110.95985 | 35009 ft | 382 kts | 191° |
| 2026-04-30 21:48 | 31.06462 | -110.96230 | 35019 ft | 380 kts | 191° |
| 2026-04-30 21:49 | 31.01127 | -110.96464 | 35027 ft | 380 kts | 191° |
| 2026-04-30 21:49 | 30.95760 | -110.96713 | 35022 ft | 384 kts | 191° |
| 2026-04-30 21:50 | 30.90399 | -110.96961 | 35016 ft | 383 kts | 191° |
| 2026-04-30 21:50 | 30.84982 | -110.97205 | 35010 ft | 385 kts | 191° |
| 2026-04-30 21:51 | 30.79663 | -110.97447 | 35004 ft | 382 kts | 190° |
| 2026-04-30 21:51 | 30.74315 | -110.97707 | 34992 ft | 380 kts | 191° |
| 2026-04-30 21:52 | 30.68930 | -110.97977 | 34988 ft | 383 kts | 191° |
| 2026-04-30 21:52 | 30.63546 | -110.98244 | 34976 ft | 383 kts | 191° |
| 2026-04-30 21:53 | 30.58221 | -110.98494 | 34971 ft | 379 kts | 191° |
| 2026-04-30 21:53 | 30.52864 | -110.98758 | 34968 ft | 386 kts | 191° |
| 2026-04-30 21:54 | 30.47488 | -110.99013 | 34959 ft | 384 kts | 191° |
| 2026-04-30 21:54 | 30.42188 | -110.99251 | 34965 ft | 381 kts | 191° |
| 2026-04-30 21:55 | 30.36807 | -110.99496 | 34959 ft | 383 kts | 191° |
| 2026-04-30 21:55 | 30.31512 | -110.99741 | 34958 ft | 379 kts | 191° |
| 2026-04-30 21:56 | 30.26196 | -110.99983 | 34958 ft | 382 kts | 191° |
| 2026-04-30 21:56 | 30.20870 | -111.00223 | 34957 ft | 383 kts | 191° |
| 2026-04-30 21:57 | 30.15556 | -111.00463 | 34955 ft | 384 kts | 191° |
| 2026-04-30 21:57 | 30.10218 | -111.00703 | 34939 ft | 381 kts | 191° |
| 2026-04-30 21:58 | 30.04894 | -111.00935 | 34934 ft | 380 kts | 192° |
| 2026-04-30 21:58 | 29.99569 | -111.01180 | 34928 ft | 383 kts | 191° |
| 2026-04-30 21:59 | 29.94241 | -111.01414 | 34930 ft | 379 kts | 191° |
| 2026-04-30 22:00 | 29.86231 | -111.01783 | 34926 ft | 386 kts | 191° |
| 2026-04-30 22:00 | 29.78191 | -111.02143 | 34922 ft | 383 kts | 192° |
| 2026-04-30 22:01 | 29.72834 | -111.02389 | 34919 ft | 386 kts | 191° |
| 2026-04-30 22:01 | 29.67479 | -111.02631 | 34918 ft | 380 kts | 192° |
| 2026-04-30 22:02 | 29.62161 | -111.02882 | 34912 ft | 384 kts | 192° |
| 2026-04-30 22:02 | 29.56774 | -111.03125 | 34913 ft | 385 kts | 192° |
| 2026-04-30 22:03 | 29.51385 | -111.03360 | 34902 ft | 387 kts | 191° |
| 2026-04-30 22:03 | 29.46024 | -111.03590 | 34902 ft | 383 kts | 192° |
| 2026-04-30 22:04 | 29.40630 | -111.03833 | 34911 ft | 388 kts | 192° |
| 2026-04-30 22:05 | 29.32495 | -111.04205 | 34913 ft | 390 kts | 192° |
| 2026-04-30 22:05 | 29.27033 | -111.04444 | 34912 ft | 392 kts | 192° |
| 2026-04-30 22:06 | 29.21583 | -111.04678 | 34914 ft | 386 kts | 191° |
| 2026-04-30 22:06 | 29.13402 | -111.05041 | 34905 ft | 390 kts | 192° |
| 2026-04-30 22:07 | 29.07940 | -111.05152 | 34901 ft | 396 kts | 188° |
| 2026-04-30 22:07 | 29.02344 | -111.04628 | 34885 ft | 401 kts | 185° |
| 2026-04-30 22:08 | 28.96767 | -111.04012 | 34873 ft | 399 kts | 185° |
| 2026-04-30 22:08 | 28.91168 | -111.03387 | 34875 ft | 403 kts | 185° |
| 2026-04-30 22:09 | 28.85592 | -111.02715 | 34870 ft | 402 kts | 185° |
| 2026-04-30 22:09 | 28.79933 | -111.02027 | 34864 ft | 406 kts | 185° |
| 2026-04-30 22:10 | 28.74263 | -111.01327 | 34859 ft | 405 kts | 185° |
| 2026-04-30 22:10 | 28.68674 | -111.00670 | 34867 ft | 400 kts | 186° |
| 2026-04-30 22:11 | 28.60232 | -110.99764 | 34876 ft | 401 kts | 186° |
| 2026-04-30 22:12 | 28.54633 | -110.99149 | 34889 ft | 406 kts | 186° |
| 2026-04-30 22:12 | 28.48938 | -110.98523 | 34900 ft | 409 kts | 186° |
| 2026-04-30 22:13 | 28.43241 | -110.97894 | 34894 ft | 406 kts | 186° |
| 2026-04-30 22:13 | 28.37567 | -110.97276 | 34877 ft | 413 kts | 186° |
| 2026-04-30 22:14 | 28.31820 | -110.96645 | 34862 ft | 409 kts | 185° |
| 2026-04-30 22:14 | 28.26106 | -110.96014 | 34846 ft | 414 kts | 185° |
| 2026-04-30 22:15 | 28.20401 | -110.95393 | 34837 ft | 409 kts | 186° |
| 2026-04-30 22:15 | 28.14663 | -110.94771 | 34830 ft | 414 kts | 185° |
| 2026-04-30 22:16 | 28.08917 | -110.94148 | 34829 ft | 411 kts | 185° |
| 2026-04-30 22:17 | 27.97408 | -110.92896 | 34828 ft | 412 kts | 185° |
| 2026-04-30 22:17 | 27.88785 | -110.91727 | 34829 ft | 418 kts | 183° |
| 2026-04-30 22:18 | 27.80079 | -110.90356 | 34824 ft | 419 kts | 183° |
| 2026-04-30 22:19 | 27.71328 | -110.89002 | 34819 ft | 422 kts | 183° |
| 2026-04-30 22:20 | 27.62576 | -110.87669 | 34808 ft | 421 kts | 184° |
| 2026-04-30 22:20 | 27.53815 | -110.86344 | 34810 ft | 423 kts | 184° |
| 2026-04-30 22:21 | 27.47955 | -110.85465 | 34804 ft | 424 kts | 183° |
| 2026-04-30 22:21 | 27.42076 | -110.84583 | 34795 ft | 422 kts | 183° |
| 2026-04-30 22:22 | 27.36227 | -110.83708 | 34791 ft | 426 kts | 184° |
| 2026-04-30 22:22 | 27.30288 | -110.82825 | 34798 ft | 426 kts | 184° |
| 2026-04-30 22:23 | 27.24415 | -110.81937 | 34788 ft | 423 kts | 183° |
| 2026-04-30 22:23 | 27.18549 | -110.81059 | 34786 ft | 426 kts | 183° |
| 2026-04-30 22:24 | 27.12629 | -110.80172 | 34793 ft | 425 kts | 183° |
| 2026-04-30 22:24 | 27.06756 | -110.79293 | 34793 ft | 424 kts | 183° |
| 2026-04-30 22:25 | 27.00819 | -110.78411 | 34785 ft | 429 kts | 183° |
| 2026-04-30 22:25 | 26.94885 | -110.77521 | 34786 ft | 426 kts | 183° |
| 2026-04-30 22:26 | 26.86004 | -110.76202 | 34787 ft | 429 kts | 183° |
| 2026-04-30 22:27 | 26.80070 | -110.75320 | 34792 ft | 430 kts | 183° |
| 2026-04-30 22:27 | 26.71135 | -110.73993 | 34790 ft | 429 kts | 182° |
| 2026-04-30 22:28 | 26.62230 | -110.72674 | 34791 ft | 427 kts | 182° |
| 2026-04-30 22:29 | 26.50353 | -110.70919 | 34787 ft | 429 kts | 182° |
| 2026-04-30 22:31 | 26.29507 | -110.67840 | 34791 ft | 431 kts | 182° |
| 2026-04-30 22:32 | 26.14510 | -110.65633 | 34792 ft | 434 kts | 182° |
| 2026-04-30 22:33 | 25.99551 | -110.63436 | 34792 ft | 431 kts | 181° |
| 2026-04-30 22:35 | 25.84627 | -110.61251 | 34795 ft | 433 kts | 182° |
| 2026-04-30 22:36 | 25.69580 | -110.59056 | 34787 ft | 435 kts | 181° |
| 2026-04-30 22:37 | 25.57586 | -110.57307 | 34783 ft | 434 kts | 181° |
| 2026-04-30 22:38 | 25.45630 | -110.55567 | 34802 ft | 433 kts | 181° |
| 2026-04-30 22:39 | 25.36553 | -110.54257 | 34805 ft | 434 kts | 181° |
| 2026-04-30 22:39 | 25.27651 | -110.51510 | 34804 ft | 463 kts | 159° |
| 2026-04-30 22:40 | 25.20105 | -110.44363 | 34806 ft | 486 kts | 142° |
| 2026-04-30 22:41 | 25.08487 | -110.30798 | 34807 ft | 483 kts | 142° |
| 2026-04-30 22:43 | 24.94498 | -110.14662 | 34794 ft | 483 kts | 142° |
| 2026-04-30 22:44 | 24.85108 | -110.03899 | 34788 ft | 483 kts | 142° |
| 2026-04-30 22:45 | 24.71134 | -109.87928 | 34439 ft | 474 kts | 142° |
| 2026-04-30 22:46 | 24.66596 | -109.82746 | 33200 ft | 471 kts | 141° |
| 2026-04-30 22:47 | 24.57352 | -109.72253 | 29850 ft | 482 kts | 141° |
| 2026-04-30 22:47 | 24.52653 | -109.66929 | 27949 ft | 490 kts | 141° |
| 2026-04-30 22:48 | 24.47900 | -109.61540 | 26149 ft | 494 kts | 140° |
| 2026-04-30 22:49 | 24.40836 | -109.53513 | 24087 ft | 483 kts | 140° |
| 2026-04-30 22:49 | 24.33161 | -109.46868 | 21842 ft | 455 kts | 162° |
| 2026-04-30 22:50 | 24.21232 | -109.45088 | 19012 ft | 417 kts | 191° |
| 2026-04-30 22:51 | 24.15650 | -109.46305 | 17776 ft | 404 kts | 197° |
| 2026-04-30 22:51 | 24.10328 | -109.47736 | 16454 ft | 380 kts | 197° |
| 2026-04-30 22:52 | 24.07774 | -109.48405 | 15823 ft | 369 kts | 197° |
| 2026-04-30 22:52 | 24.02902 | -109.49685 | 14654 ft | 360 kts | 197° |
| 2026-04-30 22:53 | 23.97996 | -109.50993 | 13434 ft | 360 kts | 197° |
| 2026-04-30 22:53 | 23.93157 | -109.52279 | 12167 ft | 356 kts | 197° |
| 2026-04-30 22:53 | 23.90750 | -109.52937 | 11598 ft | 353 kts | 199° |
| 2026-04-30 22:54 | 23.86149 | -109.54511 | 10776 ft | 337 kts | 202° |
| 2026-04-30 22:55 | 23.79876 | -109.56909 | 10371 ft | 297 kts | 203° |
| 2026-04-30 22:55 | 23.76104 | -109.58318 | 10111 ft | 275 kts | 203° |
| 2026-04-30 22:56 | 23.72499 | -109.59656 | 9450 ft | 272 kts | 203° |
| 2026-04-30 22:56 | 23.67144 | -109.61633 | 8429 ft | 268 kts | 203° |
| 2026-04-30 22:57 | 23.63625 | -109.62931 | 7769 ft | 265 kts | 202° |
| 2026-04-30 22:57 | 23.60127 | -109.64221 | 7113 ft | 265 kts | 202° |
| 2026-04-30 22:58 | 23.58594 | -109.64786 | 6821 ft | 264 kts | 201° |
| 2026-04-30 22:59 | 23.53281 | -109.66743 | 5807 ft | 271 kts | 201° |
| 2026-04-30 22:59 | 23.47911 | -109.68713 | 4790 ft | 270 kts | 200° |